createdAt,value
2023-05-21T00:00:45.371Z,81.72
2023-05-21T00:10:48.298Z,82.52
2023-05-21T00:20:53.205Z,82.23
2023-05-21T00:30:56.020Z,81.65
2023-05-21T00:41:02.566Z,81.98
2023-05-21T00:51:06.453Z,83.68
2023-05-21T01:01:14.022Z,83.97
2023-05-21T01:11:18.686Z,84.23
2023-05-21T01:21:28.591Z,85.25
2023-05-21T01:31:46.414Z,86.16
2023-05-21T01:41:54.392Z,87.23
2023-05-21T01:51:58.879Z,87.35
2023-05-21T02:02:02.002Z,87.74
2023-05-21T02:12:07.341Z,87.77
2023-05-21T02:22:10.542Z,87.46
2023-05-21T02:32:14.869Z,88.05
2023-05-21T02:42:18.100Z,88.34
2023-05-21T02:52:23.978Z,88.81
2023-05-21T03:02:27.902Z,89.17
2023-05-21T03:12:32.496Z,89.96
2023-05-21T03:22:37.675Z,89.79
2023-05-21T03:32:45.146Z,90.15
2023-05-21T03:42:48.518Z,90.78
2023-05-21T03:52:53.544Z,92.10
2023-05-21T04:02:56.844Z,93.16
2023-05-21T04:13:01.165Z,93.90
2023-05-21T04:23:04.917Z,94.82
2023-05-21T04:33:10.062Z,94.74
2023-05-21T04:43:13.101Z,95.88
2023-05-21T04:53:17.536Z,97.95
2023-05-21T05:03:21.665Z,97.98
2023-05-21T05:13:26.164Z,98.58
2023-05-21T05:23:29.349Z,98.29
2023-05-21T05:33:33.770Z,96.96
2023-05-21T05:43:36.838Z,97.12
2023-05-21T05:53:41.347Z,96.02
2023-05-21T06:03:45.078Z,96.41
2023-05-21T06:13:52.646Z,95.50
2023-05-21T06:23:55.752Z,94.75
2023-05-21T06:34:00.856Z,92.29
2023-05-21T06:44:05.016Z,91.16
2023-05-21T06:54:38.724Z,88.69
2023-05-21T07:04:42.650Z,85.98
2023-05-21T07:14:48.077Z,83.17
2023-05-21T07:24:51.510Z,80.27
2023-05-21T07:34:55.913Z,78.95
2023-05-21T07:45:02.383Z,78.17
2023-05-21T07:55:12.053Z,77.07
2023-05-21T08:05:17.458Z,76.95
2023-05-21T08:15:22.703Z,78.62
2023-05-21T08:25:26.052Z,79.86
2023-05-21T08:35:32.272Z,78.29
2023-05-21T08:45:46.763Z,76.86
2023-05-21T08:55:54.234Z,74.84
2023-05-21T09:05:59.079Z,72.39
2023-05-21T09:16:07.841Z,72.79
2023-05-21T09:26:13.715Z,69.92
2023-05-21T09:36:20.232Z,69.84
2023-05-21T09:46:27.302Z,66.18
2023-05-21T09:56:32.627Z,64.98
2023-05-21T10:06:39.313Z,62.75
2023-05-21T10:16:44.321Z,63.55
2023-05-21T10:26:49.001Z,60.65
2023-05-21T10:36:55.662Z,59.43
2023-05-21T10:47:35.251Z,55.77
2023-05-21T10:58:17.606Z,54.24
2023-05-21T11:08:24.933Z,49.68
2023-05-21T11:29:09.570Z,50.66
2023-05-21T11:39:15.566Z,41.64
2023-05-21T11:49:20.421Z,42.79
2023-05-21T11:59:23.470Z,39.90
2023-05-21T12:09:27.738Z,33.91
2023-05-21T12:19:33.866Z,39.45
2023-05-21T12:29:39.756Z,27.71
2023-05-21T12:39:45.155Z,30.10
2023-05-21T12:49:49.297Z,33.77
2023-05-21T12:59:53.274Z,39.54
2023-05-21T13:09:58.109Z,43.50
2023-05-21T13:20:09.157Z,48.56
2023-05-21T13:30:14.309Z,50.62
2023-05-21T13:40:18.356Z,50.06
2023-05-21T13:50:22.676Z,52.10
2023-05-21T14:00:25.739Z,52.79
2023-05-21T14:10:30.137Z,52.61
2023-05-21T14:20:33.124Z,54.55
2023-05-21T14:30:37.720Z,53.06
2023-05-21T14:40:41.360Z,53.76
2023-05-21T14:50:45.825Z,52.70
2023-05-21T15:00:49.015Z,54.56
2023-05-21T15:10:53.371Z,54.69
2023-05-21T15:20:56.451Z,55.32
2023-05-21T15:31:00.924Z,55.70
2023-05-21T15:41:04.263Z,55.69
2023-05-21T15:51:08.855Z,56.69
2023-05-21T16:01:11.871Z,56.23
2023-05-21T16:11:16.365Z,57.79
2023-05-21T16:21:19.152Z,59.03
2023-05-21T16:31:23.351Z,61.34
2023-05-21T16:41:26.118Z,59.58
2023-05-21T16:51:31.237Z,63.47
2023-05-21T17:01:34.377Z,64.80
2023-05-21T17:11:38.965Z,66.84
2023-05-21T17:21:42.126Z,64.19
2023-05-21T17:31:46.649Z,63.75
2023-05-21T17:41:49.978Z,64.58
2023-05-21T17:51:55.408Z,64.90
2023-05-21T18:02:01.497Z,64.09
2023-05-21T18:12:07.930Z,65.61
2023-05-21T18:22:11.184Z,68.07
2023-05-21T18:32:16.819Z,70.53
2023-05-21T18:42:20.069Z,71.45
2023-05-21T18:52:24.517Z,73.16
2023-05-21T19:02:30.072Z,76.63
2023-05-21T19:12:36.268Z,78.55
2023-05-21T19:22:39.659Z,80.28
2023-05-21T19:32:44.105Z,79.88
2023-05-21T19:42:47.254Z,79.81
2023-05-21T19:52:52.213Z,80.06
2023-05-21T20:02:55.778Z,80.61
2023-05-21T20:12:59.949Z,81.34
2023-05-21T20:23:03.251Z,82.22
2023-05-21T20:33:07.678Z,82.85
2023-05-21T20:43:13.790Z,83.87
2023-05-21T20:53:19.109Z,83.76
2023-05-21T21:03:23.381Z,84.05
2023-05-21T21:13:28.011Z,85.09
2023-05-21T21:23:31.081Z,85.04
2023-05-21T21:33:35.471Z,84.88
2023-05-21T21:43:38.802Z,85.23
2023-05-21T21:53:43.208Z,85.68
2023-05-21T22:03:46.599Z,85.69
2023-05-21T22:13:50.854Z,86.98
2023-05-21T22:23:54.098Z,87.34
2023-05-21T22:33:58.473Z,89.15
2023-05-21T22:44:01.730Z,89.60
2023-05-21T22:54:06.528Z,89.33
2023-05-21T23:04:09.649Z,90.65
2023-05-21T23:14:14.069Z,90.18
2023-05-21T23:24:17.093Z,91.01
2023-05-21T23:34:21.593Z,89.90
2023-05-21T23:44:24.637Z,89.88
2023-05-21T23:54:29.337Z,89.72
